Time;durP1;ratioP1;P1;durP2;ratioP2;P2;SDS_P1;SDS_P2;PMS_P1;PMS_P2;Temp;Humidity;BMP_temperature;BMP_pressure;BME280_temperature;BME280_humidity;BME280_pressure;Samples;Min_cycle;Max_cycle;Signal;HPM_P1;HPM_P2
2023/06/21 00:00:32;;;;;;;;;;;22.50;81.70;;;;;;6075618;23;19909;-91
2023/06/21 00:09:04;;;;;;;;;;;22.40;81.20;;;;;;6125812;23;20008;-90
2023/06/21 00:11:30;;;;;;;;;;;22.50;81.90;;;;;;6100147;23;19953;-90
2023/06/21 00:13:58;;;;;;;;;;;22.50;81.80;;;;;;6076307;23;19917;-91
2023/06/21 00:16:23;;;;;;;;;;;22.40;81.80;;;;;;6076483;23;19915;-91
2023/06/21 00:18:49;;;;;;;;;;;22.40;82.10;;;;;;6099649;23;19925;-89
2023/06/21 00:21:15;;;;;;;;;;;22.40;82.00;;;;;;6099942;23;19909;-91
2023/06/21 00:23:43;;;;;;;;;;;22.40;81.60;;;;;;6075763;23;19909;-92
2023/06/21 00:26:09;;;;;;;;;;;22.40;81.90;;;;;;6076851;23;19913;-91
2023/06/21 00:28:35;;;;;;;;;;;22.40;81.60;;;;;;6075625;23;19917;-91
2023/06/21 00:31:00;;;;;;;;;;;22.40;81.70;;;;;;6076169;23;19920;-91
2023/06/21 00:33:26;;;;;;;;;;;22.40;81.70;;;;;;6125096;23;19905;-91
2023/06/21 00:35:52;;;;;;;;;;;22.40;81.30;;;;;;6100319;23;19936;-92
2023/06/21 00:38:18;;;;;;;;;;;22.40;81.90;;;;;;6076004;23;20303;-91
2023/06/21 00:40:45;;;;;;;;;;;22.40;82.10;;;;;;6076088;23;20308;-92
2023/06/21 00:43:11;;;;;;;;;;;22.40;82.40;;;;;;6076343;23;19959;-92
2023/06/21 00:45:45;;;;;;;;;;;22.40;82.30;;;;;;6076171;23;19944;-92
2023/06/21 00:48:11;;;;;;;;;;;22.40;82.50;;;;;;6077076;23;19917;-91
2023/06/21 00:50:56;;;;;;;;;;;22.40;82.30;;;;;;6099567;23;19920;-90
2023/06/21 00:53:26;;;;;;;;;;;22.40;81.90;;;;;;6099887;23;19904;-91
2023/06/21 00:55:52;;;;;;;;;;;22.40;82.40;;;;;;6076877;23;19937;-91
2023/06/21 00:58:20;;;;;;;;;;;22.40;82.30;;;;;;6075850;23;19909;-92
2023/06/21 01:01:08;;;;;;;;;;;22.40;82.10;;;;;;6076181;23;19917;-91
2023/06/21 01:03:35;;;;;;;;;;;22.40;82.50;;;;;;6099347;23;19912;-92
2023/06/21 01:06:23;;;;;;;;;;;22.40;82.20;;;;;;6076114;23;19936;-92
2023/06/21 01:09:01;;;;;;;;;;;22.40;82.50;;;;;;6097440;23;19941;-92
2023/06/21 01:11:28;;;;;;;;;;;22.40;82.30;;;;;;6099692;23;20310;-91
2023/06/21 01:14:00;;;;;;;;;;;22.40;82.00;;;;;;6075958;23;19909;-91
2023/06/21 01:16:29;;;;;;;;;;;22.40;82.50;;;;;;6100049;23;19916;-91
2023/06/21 01:18:55;;;;;;;;;;;22.40;82.60;;;;;;6075128;23;19909;-91
2023/06/21 01:21:25;;;;;;;;;;;22.30;82.50;;;;;;6101224;23;19964;-90
2023/06/21 01:23:57;;;;;;;;;;;22.30;82.30;;;;;;6077204;23;19940;-92
2023/06/21 01:26:23;;;;;;;;;;;22.30;82.50;;;;;;6101505;23;19905;-91
2023/06/21 01:29:01;;;;;;;;;;;22.30;82.60;;;;;;6101622;23;19920;-90
2023/06/21 01:31:27;;;;;;;;;;;22.30;82.50;;;;;;6101426;23;19915;-91
2023/06/21 01:34:13;;;;;;;;;;;22.30;82.20;;;;;;6077668;23;19960;-90
2023/06/21 01:36:39;;;;;;;;;;;22.30;82.50;;;;;;6101237;23;19960;-91
2023/06/21 01:39:09;;;;;;;;;;;22.30;82.90;;;;;;6077894;23;19909;-91
2023/06/21 01:41:35;;;;;;;;;;;22.30;82.60;;;;;;6101134;23;19967;-91
2023/06/21 01:44:05;;;;;;;;;;;22.30;82.40;;;;;;6077382;23;19917;-92
2023/06/21 01:46:31;;;;;;;;;;;22.30;82.70;;;;;;6077549;23;20231;-92
2023/06/21 01:49:17;;;;;;;;;;;22.20;82.30;;;;;;6078653;23;20003;-91
2023/06/21 01:51:43;;;;;;;;;;;22.30;82.40;;;;;;6101878;23;19912;-91
2023/06/21 01:54:10;;;;;;;;;;;22.30;82.40;;;;;;6078805;23;19913;-91
2023/06/21 01:56:37;;;;;;;;;;;22.20;82.80;;;;;;6078791;23;19916;-91
2023/06/21 01:59:03;;;;;;;;;;;22.20;82.60;;;;;;6077755;23;20394;-90
2023/06/21 02:01:50;;;;;;;;;;;22.20;82.80;;;;;;6077241;23;19952;-91
2023/06/21 02:04:16;;;;;;;;;;;22.20;82.70;;;;;;6101491;23;20246;-91
2023/06/21 02:06:42;;;;;;;;;;;22.20;82.60;;;;;;6077305;23;19952;-91
2023/06/21 02:09:09;;;;;;;;;;;22.20;82.30;;;;;;6077342;23;19991;-91
2023/06/21 02:11:35;;;;;;;;;;;22.20;82.60;;;;;;6076548;23;19916;-91
2023/06/21 02:14:02;;;;;;;;;;;22.20;82.60;;;;;;6077322;23;19916;-91
2023/06/21 02:16:28;;;;;;;;;;;22.20;82.70;;;;;;6078339;23;19962;-90
2023/06/21 02:18:55;;;;;;;;;;;22.20;82.60;;;;;;6078341;23;20321;-91
2023/06/21 02:21:40;;;;;;;;;;;22.20;82.80;;;;;;6077398;23;20363;-91
2023/06/21 02:24:06;;;;;;;;;;;22.20;82.50;;;;;;6101246;23;20362;-89
2023/06/21 02:26:31;;;;;;;;;;;22.20;82.40;;;;;;6077292;23;19909;-91
2023/06/21 02:28:57;;;;;;;;;;;22.20;82.50;;;;;;6101395;23;19913;-91
2023/06/21 02:31:23;;;;;;;;;;;22.20;82.20;;;;;;6076602;23;19909;-91
2023/06/21 02:34:09;;;;;;;;;;;22.20;82.00;;;;;;6097811;23;19913;-91
2023/06/21 02:36:38;;;;;;;;;;;22.20;82.40;;;;;;6100737;23;19952;-91
2023/06/21 02:39:05;;;;;;;;;;;22.20;82.60;;;;;;6077778;23;19916;-91
2023/06/21 02:41:30;;;;;;;;;;;22.20;83.10;;;;;;6076525;23;19909;-91
2023/06/21 02:43:56;;;;;;;;;;;22.10;82.70;;;;;;6101217;23;19970;-91
2023/06/21 02:46:22;;;;;;;;;;;22.10;82.80;;;;;;6100618;23;20238;-91
2023/06/21 02:48:47;;;;;;;;;;;22.10;82.20;;;;;;6076954;23;20000;-91
2023/06/21 02:51:13;;;;;;;;;;;22.10;82.30;;;;;;6100833;23;19905;-91
2023/06/21 02:53:39;;;;;;;;;;;22.10;82.80;;;;;;6100868;23;19909;-90
2023/06/21 02:56:04;;;;;;;;;;;22.10;82.50;;;;;;6100644;23;19905;-90
2023/06/21 02:58:30;;;;;;;;;;;22.10;82.60;;;;;;6077198;23;20275;-91
2023/06/21 03:01:16;;;;;;;;;;;22.10;83.00;;;;;;6100267;23;19913;-92
2023/06/21 03:03:44;;;;;;;;;;;22.10;82.30;;;;;;6100524;23;19929;-91
2023/06/21 03:06:11;;;;;;;;;;;22.10;82.80;;;;;;6077043;23;19909;-91
2023/06/21 03:08:57;;;;;;;;;;;22.10;82.30;;;;;;6076561;23;20347;-91
2023/06/21 03:11:23;;;;;;;;;;;22.10;82.80;;;;;;6101007;23;19905;-91
2023/06/21 03:13:48;;;;;;;;;;;22.10;82.80;;;;;;6100341;23;20114;-91
2023/06/21 03:16:14;;;;;;;;;;;22.10;82.30;;;;;;6100676;23;20247;-92
2023/06/21 03:18:40;;;;;;;;;;;22.10;82.10;;;;;;6100187;23;19925;-91
2023/06/21 03:21:05;;;;;;;;;;;22.00;82.20;;;;;;6076054;23;20227;-91
2023/06/21 03:23:31;;;;;;;;;;;22.10;82.40;;;;;;6100653;23;19983;-92
2023/06/21 03:25:57;;;;;;;;;;;22.10;82.80;;;;;;6100629;23;20377;-91
2023/06/21 03:28:22;;;;;;;;;;;22.00;82.40;;;;;;6075790;23;19923;-91
2023/06/21 03:30:48;;;;;;;;;;;22.10;82.60;;;;;;6100120;23;19912;-90
2023/06/21 03:33:14;;;;;;;;;;;22.00;82.50;;;;;;6100046;23;20308;-91
2023/06/21 03:35:39;;;;;;;;;;;22.00;82.40;;;;;;6100155;23;19929;-91
2023/06/21 03:38:07;;;;;;;;;;;22.00;82.80;;;;;;6100351;23;19944;-90
2023/06/21 03:40:33;;;;;;;;;;;22.00;83.30;;;;;;6076988;23;19936;-91
2023/06/21 03:42:59;;;;;;;;;;;22.00;82.10;;;;;;6076158;23;19909;-91
2023/06/21 03:45:44;;;;;;;;;;;22.00;82.60;;;;;;6076794;23;20337;-91
2023/06/21 03:48:10;;;;;;;;;;;22.00;82.70;;;;;;6099416;23;19904;-90
2023/06/21 03:50:36;;;;;;;;;;;22.00;83.20;;;;;;6100515;23;20599;-90
2023/06/21 03:53:03;;;;;;;;;;;22.00;82.80;;;;;;6076327;23;19916;-90
2023/06/21 03:55:29;;;;;;;;;;;22.00;82.60;;;;;;6077277;23;19942;-90
2023/06/21 03:57:55;;;;;;;;;;;22.00;83.40;;;;;;6099665;23;20400;-89
2023/06/21 04:00:20;;;;;;;;;;;22.00;82.90;;;;;;6076044;23;19960;-90
2023/06/21 04:02:46;;;;;;;;;;;22.00;82.30;;;;;;6076007;23;19913;-90
2023/06/21 04:05:32;;;;;;;;;;;22.00;82.20;;;;;;6075680;23;19916;-91
2023/06/21 04:07:58;;;;;;;;;;;22.00;83.20;;;;;;6100128;23;19905;-91
2023/06/21 04:10:24;;;;;;;;;;;22.00;82.50;;;;;;6075589;23;19913;-90
2023/06/21 04:12:50;;;;;;;;;;;22.00;83.10;;;;;;6099677;23;19940;-90
2023/06/21 04:15:16;;;;;;;;;;;22.00;82.80;;;;;;6075748;23;20382;-91
2023/06/21 04:17:43;;;;;;;;;;;22.00;83.10;;;;;;6099812;23;19968;-92
2023/06/21 04:20:11;;;;;;;;;;;22.00;83.10;;;;;;6076185;23;19909;-92
2023/06/21 04:22:38;;;;;;;;;;;22.00;83.50;;;;;;6077213;23;19917;-93
2023/06/21 04:25:07;;;;;;;;;;;22.00;83.30;;;;;;6075947;23;19913;-92
2023/06/21 04:27:33;;;;;;;;;;;22.00;83.40;;;;;;6075282;23;19952;-91
2023/06/21 04:30:21;;;;;;;;;;;22.00;83.60;;;;;;6075169;23;19964;-92
2023/06/21 04:33:07;;;;;;;;;;;22.00;83.90;;;;;;6099998;23;19944;-93
2023/06/21 04:35:35;;;;;;;;;;;22.00;83.60;;;;;;6098967;23;19905;-92
2023/06/21 04:38:00;;;;;;;;;;;22.00;84.10;;;;;;6076492;23;19909;-92
2023/06/21 04:40:26;;;;;;;;;;;22.00;84.50;;;;;;6099622;23;19997;-93
2023/06/21 04:42:55;;;;;;;;;;;22.00;84.00;;;;;;6075936;23;19909;-93
2023/06/21 04:45:24;;;;;;;;;;;21.80;84.10;;;;;;6076461;23;20056;-93
2023/06/21 04:47:52;;;;;;;;;;;22.00;84.20;;;;;;6076567;23;19983;-93
2023/06/21 04:50:22;;;;;;;;;;;22.00;84.10;;;;;;6076029;23;20250;-93
2023/06/21 04:53:07;;;;;;;;;;;21.90;83.60;;;;;;6100122;23;19909;-94
2023/06/21 04:55:34;;;;;;;;;;;22.00;84.20;;;;;;6099003;23;20220;-93
2023/06/21 04:58:05;;;;;;;;;;;22.00;84.00;;;;;;6099624;23;19909;-93
2023/06/21 05:01:00;;;;;;;;;;;22.00;84.50;;;;;;6077075;23;19909;-93
2023/06/21 05:03:29;;;;;;;;;;;22.00;85.00;;;;;;6100432;23;19980;-92
2023/06/21 05:06:26;;;;;;;;;;;22.00;84.30;;;;;;6076696;23;19909;-93
2023/06/21 05:08:56;;;;;;;;;;;22.00;84.10;;;;;;6099307;23;19956;-93
2023/06/21 05:11:27;;;;;;;;;;;22.00;85.00;;;;;;6075440;23;19958;-94
2023/06/21 05:14:12;;;;;;;;;;;22.00;84.70;;;;;;6075400;23;19909;-92
2023/06/21 05:16:40;;;;;;;;;;;22.00;84.90;;;;;;6101118;23;19911;-93
2023/06/21 05:19:12;;;;;;;;;;;22.00;85.50;;;;;;6100757;23;19941;-93
2023/06/21 05:21:44;;;;;;;;;;;22.00;85.30;;;;;;6078155;23;19940;-93
2023/06/21 05:24:10;;;;;;;;;;;22.00;85.20;;;;;;6078956;23;20311;-93
2023/06/21 05:26:35;;;;;;;;;;;22.00;85.00;;;;;;6101239;23;19905;-94
2023/06/21 05:34:36;;;;;;;;;;;22.00;85.00;;;;;;6123887;23;19925;-96
2023/06/21 05:37:02;;;;;;;;;;;22.00;85.40;;;;;;6098749;23;19911;-95
2023/06/21 05:39:28;;;;;;;;;;;22.00;85.20;;;;;;6099777;23;19976;-95
2023/06/21 05:42:02;;;;;;;;;;;22.00;85.60;;;;;;6099221;23;20233;-95
2023/06/21 05:44:41;;;;;;;;;;;22.00;85.40;;;;;;6075709;23;19913;-96
2023/06/21 05:47:22;;;;;;;;;;;22.10;86.00;;;;;;6100088;23;19920;-96
2023/06/21 05:49:48;;;;;;;;;;;22.00;86.10;;;;;;6101601;23;19987;-94
2023/06/21 05:52:15;;;;;;;;;;;22.00;85.30;;;;;;6100521;23;19937;-96
2023/06/21 05:54:43;;;;;;;;;;;22.00;86.60;;;;;;6101087;23;19905;-95
2023/06/21 05:57:34;;;;;;;;;;;22.00;88.10;;;;;;6105912;23;19909;-96
2023/06/21 06:00:30;;;;;;;;;;;22.00;88.60;;;;;;6128994;23;20148;-96
2023/06/21 06:03:16;;;;;;;;;;;22.00;88.60;;;;;;6129307;23;19984;-96
2023/06/21 06:09:25;;;;;;;;;;;22.00;88.50;;;;;;6133491;23;20378;-96
2023/06/21 06:12:14;;;;;;;;;;;22.10;89.30;;;;;;6105935;23;19909;-96
2023/06/21 06:14:41;;;;;;;;;;;22.10;90.00;;;;;;6130347;23;19905;-95
2023/06/21 06:17:16;;;;;;;;;;;22.00;89.90;;;;;;6102279;23;20310;-95
2023/06/21 06:19:41;;;;;;;;;;;22.00;89.20;;;;;;6079110;23;19919;-96
2023/06/21 06:22:07;;;;;;;;;;;22.10;89.70;;;;;;6102670;23;19983;-95
2023/06/21 06:24:33;;;;;;;;;;;22.10;89.60;;;;;;6079072;23;19916;-96
2023/06/21 06:27:02;;;;;;;;;;;22.10;89.30;;;;;;6077962;23;19940;-96
2023/06/21 06:29:53;;;;;;;;;;;22.20;89.20;;;;;;6104508;23;20318;-96
2023/06/21 06:32:22;;;;;;;;;;;22.20;89.70;;;;;;6105144;23;19905;-96
2023/06/21 06:35:06;;;;;;;;;;;22.20;89.60;;;;;;6105048;23;19913;-95
2023/06/21 06:37:32;;;;;;;;;;;22.20;89.30;;;;;;6081739;23;19913;-96
2023/06/21 06:40:20;;;;;;;;;;;22.20;89.40;;;;;;6078214;23;19992;-96
2023/06/21 06:42:49;;;;;;;;;;;22.20;88.80;;;;;;6102138;23;19905;-96
2023/06/21 06:45:25;;;;;;;;;;;22.30;88.60;;;;;;6079645;23;20409;-96
2023/06/21 06:47:51;;;;;;;;;;;22.30;88.40;;;;;;6077372;23;19909;-96
2023/06/21 06:50:38;;;;;;;;;;;22.30;88.30;;;;;;6102468;23;19920;-96
2023/06/21 06:53:05;;;;;;;;;;;22.30;87.90;;;;;;6127398;23;19929;-95
2023/06/21 06:55:43;;;;;;;;;;;22.40;87.80;;;;;;6078590;23;19909;-96
2023/06/21 06:58:09;;;;;;;;;;;22.40;87.60;;;;;;6077226;23;19941;-96
2023/06/21 07:00:35;;;;;;;;;;;22.40;87.30;;;;;;6075788;23;19909;-95
2023/06/21 07:03:01;;;;;;;;;;;22.50;87.20;;;;;;6100624;23;19939;-96
2023/06/21 07:05:27;;;;;;;;;;;22.50;87.00;;;;;;6077511;23;19913;-96
2023/06/21 07:07:53;;;;;;;;;;;22.50;86.80;;;;;;6077453;23;19909;-95
2023/06/21 07:10:19;;;;;;;;;;;22.50;86.60;;;;;;6101715;23;19965;-96
2023/06/21 07:12:45;;;;;;;;;;;22.50;86.30;;;;;;6100101;23;19937;-96
2023/06/21 07:15:11;;;;;;;;;;;22.60;86.30;;;;;;6100493;23;20311;-96
2023/06/21 07:17:38;;;;;;;;;;;22.60;86.00;;;;;;6101646;23;19983;-96
2023/06/21 07:20:08;;;;;;;;;;;22.60;85.80;;;;;;6101266;23;20510;-96
2023/06/21 07:22:33;;;;;;;;;;;22.70;85.60;;;;;;6102234;23;19959;-96
2023/06/21 07:24:59;;;;;;;;;;;22.70;85.50;;;;;;6101932;23;19904;-96
2023/06/21 07:27:28;;;;;;;;;;;22.80;85.40;;;;;;6102705;23;19911;-96
2023/06/21 07:29:54;;;;;;;;;;;22.80;85.20;;;;;;6101878;23;19936;-95
2023/06/21 07:32:20;;;;;;;;;;;22.90;85.10;;;;;;6101715;23;20322;-94
2023/06/21 07:34:45;;;;;;;;;;;22.90;85.00;;;;;;6102372;23;19909;-95
2023/06/21 07:37:11;;;;;;;;;;;22.90;85.60;;;;;;6078490;23;19995;-95
2023/06/21 07:39:37;;;;;;;;;;;23.00;84.80;;;;;;6100859;23;19956;-96
2023/06/21 07:42:04;;;;;;;;;;;23.00;84.60;;;;;;6076503;23;19912;-95
2023/06/21 07:44:31;;;;;;;;;;;23.00;84.40;;;;;;6101874;23;20254;-95
2023/06/21 07:46:56;;;;;;;;;;;23.10;84.40;;;;;;6101493;23;19909;-95
2023/06/21 07:49:22;;;;;;;;;;;23.10;84.10;;;;;;6101288;23;19931;-95
2023/06/21 07:51:49;;;;;;;;;;;23.20;83.70;;;;;;6075680;23;19961;-95
2023/06/21 07:54:14;;;;;;;;;;;23.20;83.50;;;;;;6075464;23;19933;-95
2023/06/21 07:57:00;;;;;;;;;;;23.20;83.30;;;;;;6077916;23;19916;-96
2023/06/21 07:59:47;;;;;;;;;;;23.30;83.20;;;;;;6127959;23;19909;-96
2023/06/21 08:02:19;;;;;;;;;;;23.30;83.10;;;;;;6105862;23;19905;-96
2023/06/21 08:05:04;;;;;;;;;;;23.30;82.80;;;;;;6084329;23;19918;-96
2023/06/21 08:07:51;;;;;;;;;;;23.40;82.90;;;;;;6130771;23;19905;-96
2023/06/21 08:10:25;;;;;;;;;;;23.40;82.70;;;;;;6142303;23;19916;-96
2023/06/21 08:16:30;;;;;;;;;;;23.40;82.40;;;;;;6117486;23;20851;-96
2023/06/21 08:24:07;;;;;;;;;;;23.50;82.00;;;;;;6126149;23;19924;-96
2023/06/21 08:26:57;;;;;;;;;;;23.50;81.90;;;;;;6114056;23;19953;-96
2023/06/21 08:29:52;;;;;;;;;;;23.60;81.90;;;;;;6065248;23;20000;-95
2023/06/21 08:32:19;;;;;;;;;;;23.60;83.50;;;;;;6065736;23;19909;-95
2023/06/21 08:34:45;;;;;;;;;;;23.80;84.30;;;;;;6042741;23;20247;-96
2023/06/21 08:37:14;;;;;;;;;;;23.80;85.00;;;;;;6044488;23;19906;-96
2023/06/21 08:39:40;;;;;;;;;;;23.90;84.80;;;;;;6076437;23;19992;-96
2023/06/21 08:42:08;;;;;;;;;;;23.90;84.70;;;;;;6053020;23;19913;-96
2023/06/21 08:44:51;;;;;;;;;;;23.80;85.10;;;;;;6052608;23;19906;-96
2023/06/21 08:47:20;;;;;;;;;;;23.90;85.10;;;;;;6075953;23;19914;-95
2023/06/21 08:49:57;;;;;;;;;;;23.90;85.30;;;;;;6051108;23;19969;-94
2023/06/21 08:52:24;;;;;;;;;;;23.90;85.40;;;;;;6054885;23;19905;-95
2023/06/21 08:55:01;;;;;;;;;;;23.90;84.90;;;;;;6053251;23;20671;-96
2023/06/21 08:57:32;;;;;;;;;;;23.80;85.10;;;;;;6048354;23;19909;-95
2023/06/21 09:00:01;;;;;;;;;;;23.80;85.80;;;;;;6045956;23;19981;-96
2023/06/21 09:02:33;;;;;;;;;;;23.80;85.70;;;;;;6044063;23;19916;-94
2023/06/21 09:05:02;;;;;;;;;;;23.80;85.80;;;;;;6043065;23;20564;-94
2023/06/21 09:07:31;;;;;;;;;;;23.80;85.70;;;;;;6047960;23;19905;-95
2023/06/21 09:09:58;;;;;;;;;;;23.70;85.80;;;;;;6044656;23;19938;-93
2023/06/21 09:12:26;;;;;;;;;;;23.70;83.80;;;;;;6044017;23;19906;-95
2023/06/21 09:14:52;;;;;;;;;;;23.60;82.70;;;;;;6045831;23;19930;-92
2023/06/21 09:17:18;;;;;;;;;;;23.50;82.60;;;;;;6047001;23;19910;-96
2023/06/21 09:23:04;;;;;;;;;;;23.30;82.10;;;;;;6088494;23;19934;-94
2023/06/21 09:25:30;;;;;;;;;;;23.30;81.90;;;;;;6042763;23;19992;-96
2023/06/21 09:27:56;;;;;;;;;;;23.30;82.50;;;;;;6018355;23;20005;-92
2023/06/21 09:30:22;;;;;;;;;;;23.30;83.30;;;;;;6065601;23;19965;-95
2023/06/21 09:32:50;;;;;;;;;;;23.20;83.90;;;;;;6041444;23;19906;-94
2023/06/21 09:35:16;;;;;;;;;;;23.20;84.10;;;;;;6041580;23;19986;-95
2023/06/21 09:37:42;;;;;;;;;;;23.10;84.40;;;;;;6018505;23;19938;-94
2023/06/21 09:40:14;;;;;;;;;;;23.10;84.60;;;;;;6041950;23;20664;-96
2023/06/21 09:42:40;;;;;;;;;;;23.00;84.40;;;;;;6048168;23;19910;-96
2023/06/21 09:45:12;;;;;;;;;;;23.00;84.20;;;;;;6044281;23;20383;-94
2023/06/21 09:47:43;;;;;;;;;;;23.00;84.30;;;;;;6042761;23;19913;-95
2023/06/21 09:50:10;;;;;;;;;;;22.90;84.20;;;;;;6042780;23;19914;-96
2023/06/21 09:52:46;;;;;;;;;;;22.90;84.10;;;;;;6067015;23;19910;-95
2023/06/21 09:55:18;;;;;;;;;;;22.90;84.30;;;;;;6067105;23;19910;-96
2023/06/21 09:58:03;;;;;;;;;;;22.80;84.80;;;;;;6070037;23;19929;-95
2023/06/21 10:00:39;;;;;;;;;;;22.80;85.00;;;;;;6118904;23;19912;-96
2023/06/21 10:25:38;;;;;;;;;;;22.50;85.30;;;;;;6148402;23;19967;-93
2023/06/21 11:09:09;;;;;;;;;;;22.20;89.50;;;;;;6087397;23;19929;-93
2023/06/21 11:12:01;;;;;;;;;;;22.20;89.40;;;;;;6085529;23;19905;-96
2023/06/21 11:31:57;;;;;;;;;;;;;;;;;;;;;
2023/06/21 11:40:29;;;;;;;;;;;22.20;90.90;;;;;;6175362;23;19983;-96
2023/06/21 11:55:53;;;;;;;;;;;22.30;91.60;;;;;;6145843;23;19944;-96
2023/06/21 11:58:39;;;;;;;;;;;22.30;91.50;;;;;;6113992;23;19925;-96
2023/06/21 12:01:19;;;;;;;;;;;22.30;91.80;;;;;;6054751;23;19913;-96
2023/06/21 12:03:46;;;;;;;;;;;22.30;91.80;;;;;;6076662;23;19905;-95
2023/06/21 12:06:12;;;;;;;;;;;22.30;91.80;;;;;;6073952;23;19905;-96
2023/06/21 12:08:38;;;;;;;;;;;22.30;91.90;;;;;;6072729;23;19905;-95
2023/06/21 12:11:04;;;;;;;;;;;22.30;92.00;;;;;;6071483;23;20415;-95
2023/06/21 12:13:31;;;;;;;;;;;22.40;92.10;;;;;;6074635;23;19979;-96
2023/06/21 12:15:57;;;;;;;;;;;22.40;92.30;;;;;;6074971;23;19909;-96
2023/06/21 12:18:24;;;;;;;;;;;22.40;93.00;;;;;;6081778;23;19930;-95
2023/06/21 12:20:53;;;;;;;;;;;22.40;92.20;;;;;;6079248;23;19974;-95
2023/06/21 12:23:21;;;;;;;;;;;22.40;92.20;;;;;;6081983;23;19906;-95
2023/06/21 12:25:48;;;;;;;;;;;22.40;92.70;;;;;;6083895;23;19952;-95
2023/06/21 12:28:43;;;;;;;;;;;22.40;92.50;;;;;;6084382;23;19925;-94
2023/06/21 12:31:16;;;;;;;;;;;22.40;93.10;;;;;;6076693;23;20296;-95
2023/06/21 12:34:02;;;;;;;;;;;22.40;92.60;;;;;;6085609;23;19921;-96
2023/06/21 12:36:31;;;;;;;;;;;22.40;92.60;;;;;;6064431;23;19909;-94
2023/06/21 12:39:16;;;;;;;;;;;22.40;92.90;;;;;;6073629;23;19909;-95
2023/06/21 12:41:48;;;;;;;;;;;22.40;92.70;;;;;;6096979;23;19988;-96
2023/06/21 12:44:20;;;;;;;;;;;22.40;92.60;;;;;;6048326;23;19921;-95
2023/06/21 12:47:06;;;;;;;;;;;22.40;92.50;;;;;;6048497;23;19910;-94
2023/06/21 12:49:32;;;;;;;;;;;22.40;92.40;;;;;;6071158;23;19917;-94
2023/06/21 12:52:17;;;;;;;;;;;22.40;92.30;;;;;;6047884;23;19957;-95
2023/06/21 12:54:54;;;;;;;;;;;22.40;92.30;;;;;;6070952;23;20323;-93
2023/06/21 12:57:24;;;;;;;;;;;22.40;92.20;;;;;;6071121;23;19913;-96
2023/06/21 12:59:50;;;;;;;;;;;22.40;92.20;;;;;;6047460;23;20326;-95
2023/06/21 13:02:16;;;;;;;;;;;22.40;92.20;;;;;;6047109;23;19910;-94
2023/06/21 13:04:46;;;;;;;;;;;22.40;92.10;;;;;;6072008;23;19906;-95
2023/06/21 13:07:11;;;;;;;;;;;22.40;92.00;;;;;;6047818;23;19913;-96
2023/06/21 13:09:37;;;;;;;;;;;22.40;92.00;;;;;;6046843;23;19996;-94
2023/06/21 13:12:03;;;;;;;;;;;22.40;91.90;;;;;;6047192;23;20340;-96
2023/06/21 13:14:29;;;;;;;;;;;22.40;91.90;;;;;;6047474;23;20271;-95
2023/06/21 13:17:11;;;;;;;;;;;22.40;91.80;;;;;;6072766;23;19912;-96
2023/06/21 13:19:38;;;;;;;;;;;22.40;91.80;;;;;;6073493;23;20270;-95
2023/06/21 13:22:04;;;;;;;;;;;22.40;91.80;;;;;;6072409;23;19905;-95
2023/06/21 13:24:30;;;;;;;;;;;22.40;91.70;;;;;;6049410;23;19940;-94
2023/06/21 13:26:56;;;;;;;;;;;22.40;91.60;;;;;;6049095;23;19925;-94
2023/06/21 13:29:22;;;;;;;;;;;22.40;91.60;;;;;;6073546;23;19917;-93
2023/06/21 13:31:47;;;;;;;;;;;22.40;91.50;;;;;;6072478;23;19905;-93
2023/06/21 13:34:13;;;;;;;;;;;22.40;91.50;;;;;;6072911;23;19912;-94
2023/06/21 13:36:39;;;;;;;;;;;22.40;91.50;;;;;;6073422;23;19905;-94
2023/06/21 13:39:04;;;;;;;;;;;22.40;91.50;;;;;;6048262;23;19920;-93
2023/06/21 13:41:30;;;;;;;;;;;22.40;91.50;;;;;;6073223;23;20238;-94
2023/06/21 13:44:16;;;;;;;;;;;22.40;91.40;;;;;;6049167;23;19925;-95
2023/06/21 13:46:41;;;;;;;;;;;22.40;91.40;;;;;;6073126;23;19916;-94
2023/06/21 13:49:07;;;;;;;;;;;22.40;91.40;;;;;;6048511;23;20301;-94
2023/06/21 13:51:33;;;;;;;;;;;22.40;91.30;;;;;;6048486;23;19913;-94
2023/06/21 13:53:58;;;;;;;;;;;22.40;91.30;;;;;;6073008;23;19906;-95
2023/06/21 13:56:24;;;;;;;;;;;22.40;91.20;;;;;;6075123;23;19912;-96
2023/06/21 13:58:49;;;;;;;;;;;22.40;91.30;;;;;;6099288;23;19917;-96
2023/06/21 14:01:21;;;;;;;;;;;22.40;91.20;;;;;;6071267;23;19928;-96
2023/06/21 14:03:46;;;;;;;;;;;22.50;91.30;;;;;;6100506;23;19941;-95
2023/06/21 14:06:12;;;;;;;;;;;22.50;91.90;;;;;;6081142;23;19913;-95
2023/06/21 14:08:38;;;;;;;;;;;22.50;91.50;;;;;;6074311;23;19912;-95
2023/06/21 14:11:03;;;;;;;;;;;22.50;91.30;;;;;;6101362;23;19961;-96
2023/06/21 14:13:29;;;;;;;;;;;22.60;91.90;;;;;;6076352;23;19992;-96
2023/06/21 14:15:57;;;;;;;;;;;22.60;92.60;;;;;;6099813;23;19927;-96
2023/06/21 14:18:24;;;;;;;;;;;22.50;92.10;;;;;;6099754;23;19960;-94
2023/06/21 14:20:50;;;;;;;;;;;22.60;92.10;;;;;;6073498;23;19909;-94
2023/06/21 14:23:18;;;;;;;;;;;22.60;92.30;;;;;;6078306;23;19906;-96
2023/06/21 14:25:47;;;;;;;;;;;22.60;92.10;;;;;;6080039;23;19905;-96
2023/06/21 14:28:13;;;;;;;;;;;22.60;92.40;;;;;;6055901;23;19909;-96
2023/06/21 14:31:08;;;;;;;;;;;22.60;92.40;;;;;;6085968;23;19917;-96
2023/06/21 14:33:43;;;;;;;;;;;22.60;92.20;;;;;;6116367;23;19919;-96
2023/06/21 14:36:41;;;;;;;;;;;22.60;91.80;;;;;;6084323;23;20334;-96
2023/06/21 14:39:36;;;;;;;;;;;22.60;92.00;;;;;;6088195;23;19928;-96
2023/06/21 14:42:01;;;;;;;;;;;22.70;92.50;;;;;;5995278;23;19913;-96
2023/06/21 14:44:32;;;;;;;;;;;22.70;91.80;;;;;;5996949;23;19906;-96
2023/06/21 14:47:04;;;;;;;;;;;22.70;92.00;;;;;;6006645;23;19907;-93
2023/06/21 14:49:35;;;;;;;;;;;22.70;92.90;;;;;;6001420;23;19954;-96
2023/06/21 14:52:01;;;;;;;;;;;22.70;91.90;;;;;;5996505;23;19913;-96
2023/06/21 14:54:41;;;;;;;;;;;22.70;91.80;;;;;;6001387;23;19921;-96
2023/06/21 14:57:09;;;;;;;;;;;22.70;92.40;;;;;;6004828;23;19914;-96
2023/06/21 14:59:37;;;;;;;;;;;22.70;91.70;;;;;;6027423;23;19910;-96
2023/06/21 15:02:03;;;;;;;;;;;22.70;91.80;;;;;;6055207;23;20008;-96
2023/06/21 15:04:36;;;;;;;;;;;22.70;91.20;;;;;;6026844;23;19909;-96
2023/06/21 15:07:15;;;;;;;;;;;22.70;91.30;;;;;;6020869;23;19945;-96
2023/06/21 15:25:14;;;;;;;;;;;22.70;90.00;;;;;;6129589;23;19926;-96
2023/06/21 15:27:56;;;;;;;;;;;22.70;89.70;;;;;;6086835;23;19909;-96
2023/06/21 15:31:03;;;;;;;;;;;22.70;89.20;;;;;;6114416;23;19957;-96
2023/06/21 15:33:48;;;;;;;;;;;22.80;89.80;;;;;;6110914;23;19945;-96
2023/06/21 15:36:19;;;;;;;;;;;22.80;90.00;;;;;;6087993;23;19919;-96
2023/06/21 15:38:51;;;;;;;;;;;22.80;90.00;;;;;;6114825;23;19912;-96
2023/06/21 15:44:23;;;;;;;;;;;22.80;89.70;;;;;;6020410;23;19943;-96
2023/06/21 15:47:12;;;;;;;;;;;;;;;;;;;;;
2023/06/21 16:03:30;;;;;;;;;;;22.70;89.30;;;;;;6115863;23;19920;-96
2023/06/21 16:05:58;;;;;;;;;;;22.70;90.00;;;;;;6162212;23;19904;-96
2023/06/21 16:08:33;;;;;;;;;;;22.80;89.10;;;;;;6189211;23;19919;-96
2023/06/21 16:10:59;;;;;;;;;;;22.70;89.10;;;;;;6163823;23;20282;-96
2023/06/21 16:13:30;;;;;;;;;;;22.80;89.60;;;;;;6186525;23;19909;-95
2023/06/21 16:16:20;;;;;;;;;;;22.80;89.40;;;;;;6193280;23;19929;-96
2023/06/21 16:18:53;;;;;;;;;;;22.80;89.60;;;;;;6132417;23;20013;-96
2023/06/21 16:21:53;;;;;;;;;;;22.70;88.80;;;;;;6135379;23;20464;-95
2023/06/21 16:24:59;;;;;;;;;;;22.70;88.90;;;;;;6137983;23;20319;-96
2023/06/21 16:27:34;;;;;;;;;;;22.80;88.80;;;;;;6077126;23;19906;-96
2023/06/21 16:30:25;;;;;;;;;;;22.70;88.40;;;;;;6054207;23;19918;-96
2023/06/21 16:35:45;;;;;;;;;;;22.70;89.90;;;;;;5993038;24;20607;-95
2023/06/21 16:38:37;;;;;;;;;;;22.70;90.30;;;;;;5993693;24;19947;-96
2023/06/21 16:41:42;;;;;;;;;;;22.70;90.80;;;;;;5995142;24;19989;-96
2023/06/21 16:44:12;;;;;;;;;;;22.80;91.10;;;;;;5992697;24;19931;-96
2023/06/21 16:46:56;;;;;;;;;;;22.80;91.30;;;;;;5964450;24;19911;-95
2023/06/21 16:50:18;;;;;;;;;;;;;;;;;;;;;
2023/06/21 16:53:36;;;;;;;;;;;;;;;;;;;;;
2023/06/21 17:50:38;;;;;;;;;;;;;;;;;;;;;
2023/06/21 18:04:02;;;;;;;;;;;22.60;92.40;;;;;;6089294;23;19936;-94
2023/06/21 18:06:28;;;;;;;;;;;22.60;92.40;;;;;;6159520;23;19916;-94
2023/06/21 18:08:54;;;;;;;;;;;22.60;92.40;;;;;;6159677;23;19920;-93
2023/06/21 18:11:20;;;;;;;;;;;22.60;92.40;;;;;;6158722;23;19967;-94
2023/06/21 18:13:45;;;;;;;;;;;22.60;92.40;;;;;;6160038;23;19908;-94
2023/06/21 18:16:11;;;;;;;;;;;22.60;92.40;;;;;;6159320;23;19995;-93
2023/06/21 18:18:46;;;;;;;;;;;22.60;92.40;;;;;;6159290;23;19936;-93
2023/06/21 18:21:11;;;;;;;;;;;22.60;92.40;;;;;;6159270;23;20315;-93
2023/06/21 18:23:38;;;;;;;;;;;22.60;92.30;;;;;;6159111;23;19956;-93
2023/06/21 18:26:03;;;;;;;;;;;22.60;92.20;;;;;;6159287;23;20348;-92
2023/06/21 18:28:29;;;;;;;;;;;22.60;92.30;;;;;;6159482;23;19982;-95
2023/06/21 18:30:54;;;;;;;;;;;22.60;92.20;;;;;;6185055;23;19952;-94
2023/06/21 18:33:20;;;;;;;;;;;22.50;92.20;;;;;;6159799;23;19904;-95